Time;durP1;ratioP1;P1;durP2;ratioP2;P2;SDS_P1;SDS_P2;PMS_P1;PMS_P2;Temp;Humidity;BMP_temperature;BMP_pressure;BME280_temperature;BME280_humidity;BME280_pressure;Samples;Min_cycle;Max_cycle;Signal;HPM_P1;HPM_P2
2021/01/26 00:02:12;;;;;;;9.40;4.17;;;5.00;99.90;;;;;;5098752;28;20171;-88
2021/01/26 00:04:38;;;;;;;9.97;4.00;;;5.00;99.90;;;;;;5116535;28;20188;-90
2021/01/26 00:07:03;;;;;;;10.60;3.97;;;5.00;99.90;;;;;;5098352;28;20175;-89
2021/01/26 00:09:29;;;;;;;10.83;4.33;;;5.00;99.90;;;;;;5098450;28;20187;-87
2021/01/26 00:11:55;;;;;;;11.77;5.00;;;5.00;99.90;;;;;;5113918;28;20175;-88
2021/01/26 00:14:20;;;;;;;11.80;5.10;;;5.00;99.90;;;;;;5096004;28;20182;-89
2021/01/26 00:16:47;;;;;;;9.73;4.57;;;4.90;99.90;;;;;;5096710;28;20214;-88
2021/01/26 00:19:12;;;;;;;13.40;4.70;;;4.90;99.90;;;;;;5116229;28;20559;-88
2021/01/26 00:21:38;;;;;;;11.50;4.40;;;4.90;99.90;;;;;;5098559;28;20198;-87
2021/01/26 00:24:04;;;;;;;11.67;4.03;;;4.90;99.90;;;;;;5098584;28;20191;-88
2021/01/26 00:26:30;;;;;;;11.33;4.63;;;4.90;99.90;;;;;;5094592;28;20184;-88
2021/01/26 00:28:56;;;;;;;13.87;4.30;;;4.80;99.90;;;;;;5086952;28;20262;-90
2021/01/26 00:31:22;;;;;;;8.93;4.10;;;4.90;99.90;;;;;;5078112;28;20180;-88
2021/01/26 00:33:47;;;;;;;9.97;3.53;;;4.80;99.90;;;;;;5077980;28;20190;-88
2021/01/26 00:36:13;;;;;;;10.67;4.30;;;4.80;99.90;;;;;;5077431;28;20215;-87
2021/01/26 00:38:39;;;;;;;7.60;3.67;;;4.80;99.90;;;;;;5077658;28;20530;-88
2021/01/26 00:41:04;;;;;;;8.80;3.80;;;4.80;99.90;;;;;;5077264;28;20237;-88
2021/01/26 00:43:30;;;;;;;11.93;4.57;;;4.80;99.90;;;;;;5077744;28;20655;-87
2021/01/26 00:45:55;;;;;;;10.90;3.70;;;4.80;99.90;;;;;;5077162;28;20175;-88
2021/01/26 00:48:21;;;;;;;8.80;3.77;;;4.80;99.90;;;;;;5077304;28;20623;-89
2021/01/26 00:50:47;;;;;;;9.00;3.70;;;4.90;99.90;;;;;;5077606;28;20628;-88
2021/01/26 00:53:14;;;;;;;7.63;3.90;;;4.80;99.90;;;;;;5081736;28;20250;-87
2021/01/26 00:55:41;;;;;;;10.87;4.50;;;4.80;99.90;;;;;;5119934;28;20225;-87
2021/01/26 00:58:06;;;;;;;8.90;3.23;;;4.90;99.90;;;;;;5099619;28;20176;-87
2021/01/26 01:00:34;;;;;;;7.40;3.37;;;4.80;99.90;;;;;;5079886;28;20176;-87
2021/01/26 01:03:00;;;;;;;9.53;4.33;;;4.70;99.90;;;;;;5078846;28;20182;-87
2021/01/26 01:05:29;;;;;;;8.67;3.90;;;4.70;99.90;;;;;;5077335;28;20264;-88
2021/01/26 01:07:55;;;;;;;7.93;3.40;;;4.80;99.90;;;;;;5094331;28;20176;-90
2021/01/26 01:10:25;;;;;;;11.93;3.90;;;4.80;99.90;;;;;;5077036;28;20195;-88
2021/01/26 01:12:50;;;;;;;10.43;3.80;;;4.70;99.90;;;;;;5094973;28;20176;-88
2021/01/26 01:15:18;;;;;;;9.03;3.80;;;4.70;99.90;;;;;;5076774;28;20558;-88
2021/01/26 01:17:44;;;;;;;9.50;3.17;;;4.70;99.90;;;;;;5094831;28;20167;-88
2021/01/26 01:20:11;;;;;;;8.33;3.60;;;4.70;99.90;;;;;;5076654;28;20168;-86
2021/01/26 01:22:37;;;;;;;12.80;4.10;;;4.60;99.90;;;;;;5076448;28;20187;-88
2021/01/26 01:25:04;;;;;;;9.67;3.97;;;4.60;99.90;;;;;;5076316;28;20664;-87
2021/01/26 01:27:30;;;;;;;11.73;3.73;;;4.70;99.90;;;;;;5076680;28;20183;-89
2021/01/26 01:29:55;;;;;;;11.67;3.30;;;4.70;99.90;;;;;;5095061;28;20167;-88
2021/01/26 01:32:21;;;;;;;6.80;3.47;;;4.70;99.90;;;;;;5079205;28;20172;-88
2021/01/26 01:34:47;;;;;;;8.70;3.73;;;4.80;99.90;;;;;;5080037;28;20180;-86
2021/01/26 01:37:12;;;;;;;9.47;3.70;;;4.70;99.90;;;;;;5082466;28;20267;-87
2021/01/26 01:39:38;;;;;;;10.20;3.80;;;4.70;99.90;;;;;;5077476;28;20167;-88
2021/01/26 01:42:08;;;;;;;8.93;3.50;;;4.70;99.90;;;;;;5076182;28;20179;-87
2021/01/26 01:44:34;;;;;;;9.00;3.80;;;4.70;99.90;;;;;;5075901;28;20172;-88
2021/01/26 01:47:02;;;;;;;8.73;3.10;;;4.70;99.90;;;;;;5076402;28;20172;-89
2021/01/26 01:49:34;;;;;;;7.67;3.20;;;4.70;99.90;;;;;;5076281;28;20203;-89
2021/01/26 01:52:00;;;;;;;13.13;3.50;;;4.70;99.90;;;;;;5076384;28;20183;-88
2021/01/26 01:54:34;;;;;;;12.60;3.60;;;4.70;99.90;;;;;;5076243;28;20175;-88
2021/01/26 01:57:13;;;;;;;8.50;3.10;;;4.70;99.90;;;;;;5075930;28;20280;-89
2021/01/26 01:59:46;;;;;;;7.90;3.40;;;4.70;99.90;;;;;;5094365;28;20171;-87
2021/01/26 02:02:13;;;;;;;10.90;3.77;;;4.60;99.90;;;;;;5075936;28;20172;-88
2021/01/26 02:04:40;;;;;;;8.17;3.10;;;4.60;99.90;;;;;;5076475;28;20171;-88
2021/01/26 02:07:06;;;;;;;11.70;4.00;;;4.60;99.90;;;;;;5075492;28;20178;-85
2021/01/26 02:09:35;;;;;;;10.67;3.90;;;4.50;99.90;;;;;;5076086;28;20701;-87
2021/01/26 02:12:01;;;;;;;8.63;3.60;;;4.50;99.90;;;;;;5076078;28;20187;-90
2021/01/26 02:14:30;;;;;;;12.40;4.00;;;4.60;99.90;;;;;;5076330;28;20176;-87
2021/01/26 02:17:08;;;;;;;11.60;3.97;;;4.60;99.90;;;;;;5076333;28;20215;-88
2021/01/26 02:19:58;;;;;;;8.30;3.33;;;4.50;99.90;;;;;;5075532;28;20197;-89
2021/01/26 02:22:45;;;;;;;8.33;3.73;;;4.40;99.90;;;;;;5092916;28;20225;-87
2021/01/26 02:25:22;;;;;;;11.73;4.23;;;4.30;99.90;;;;;;5076145;28;20164;-89
2021/01/26 02:28:31;;;;;;;7.40;2.80;;;4.40;99.90;;;;;;5076503;28;20167;-89
2021/01/26 02:31:11;;;;;;;13.73;4.63;;;4.30;99.90;;;;;;5076018;28;20172;-87
2021/01/26 02:33:43;;;;;;;8.37;3.43;;;4.20;99.90;;;;;;5093894;28;20182;-88
2021/01/26 02:36:14;;;;;;;7.43;3.50;;;4.20;99.90;;;;;;5092435;28;20675;-88
2021/01/26 02:38:43;;;;;;;10.90;4.20;;;4.10;99.90;;;;;;5096388;28;20616;-88
2021/01/26 02:41:33;;;;;;;12.10;4.60;;;4.10;99.90;;;;;;5097141;28;20187;-88
2021/01/26 02:44:16;;;;;;;10.23;3.20;;;4.10;99.90;;;;;;5079913;28;20205;-88
2021/01/26 02:47:11;;;;;;;11.40;3.57;;;4.10;99.90;;;;;;5097777;28;20260;-88
2021/01/26 02:49:42;;;;;;;7.73;3.47;;;4.10;99.90;;;;;;5070897;28;20179;-89
2021/01/26 02:52:08;;;;;;;7.03;3.33;;;4.10;99.90;;;;;;5079690;28;20182;-88
2021/01/26 02:54:59;;;;;;;8.27;3.33;;;4.00;99.90;;;;;;5096734;28;20584;-88
2021/01/26 02:57:52;;;;;;;11.60;3.63;;;4.00;99.90;;;;;;5079766;28;21090;-88
2021/01/26 03:00:25;;;;;;;11.57;3.80;;;4.00;99.90;;;;;;5079601;28;20170;-87
2021/01/26 03:02:55;;;;;;;10.73;3.43;;;4.10;99.90;;;;;;5079507;28;20180;-88
2021/01/26 03:05:24;;;;;;;6.63;3.50;;;4.10;99.90;;;;;;5096307;28;20186;-88
2021/01/26 03:07:59;;;;;;;5.43;3.07;;;4.10;99.90;;;;;;5079673;28;20662;-88
2021/01/26 03:10:31;;;;;;;8.60;3.53;;;4.20;99.90;;;;;;5079157;28;20194;-88
2021/01/26 03:13:02;;;;;;;11.67;3.80;;;4.10;99.90;;;;;;5079911;28;20179;-88
2021/01/26 03:15:36;;;;;;;11.63;3.37;;;4.10;99.90;;;;;;5079382;28;20195;-88
2021/01/26 03:18:11;;;;;;;10.13;3.37;;;4.10;99.90;;;;;;5096436;28;20220;-88
2021/01/26 03:20:41;;;;;;;9.43;3.30;;;4.00;99.90;;;;;;5078964;28;20190;-88
2021/01/26 03:23:15;;;;;;;10.57;3.33;;;4.10;99.90;;;;;;5079220;28;20278;-88
2021/01/26 03:25:46;;;;;;;11.67;3.80;;;4.10;99.90;;;;;;5079261;28;20174;-88
2021/01/26 03:28:12;;;;;;;9.93;4.03;;;4.10;99.90;;;;;;5079248;28;20608;-88
2021/01/26 03:30:43;;;;;;;7.93;3.00;;;4.20;99.90;;;;;;5079017;28;20179;-87
2021/01/26 03:33:24;;;;;;;7.87;3.27;;;4.20;99.90;;;;;;5078895;28;20635;-88
2021/01/26 03:35:51;;;;;;;11.77;3.93;;;4.10;99.90;;;;;;5078746;28;20697;-88
2021/01/26 03:38:31;;;;;;;9.77;3.37;;;4.10;99.90;;;;;;5078660;28;20175;-86
2021/01/26 03:40:59;;;;;;;8.40;3.33;;;4.30;99.90;;;;;;5078499;28;20235;-89
2021/01/26 03:43:25;;;;;;;10.57;3.47;;;4.10;99.90;;;;;;5079000;28;20274;-87
2021/01/26 03:46:21;;;;;;;9.87;3.67;;;4.20;99.90;;;;;;5078852;28;20229;-88
2021/01/26 03:49:08;;;;;;;11.93;4.00;;;4.10;99.90;;;;;;5078079;28;20175;-88
2021/01/26 03:51:52;;;;;;;9.43;3.13;;;4.20;99.90;;;;;;5078186;28;20177;-86
2021/01/26 03:54:40;;;;;;;11.03;3.53;;;4.20;99.90;;;;;;5095137;28;20190;-86
2021/01/26 03:57:32;;;;;;;8.27;3.60;;;4.10;99.90;;;;;;5095205;28;20203;-87
2021/01/26 04:00:09;;;;;;;7.87;3.70;;;4.00;99.90;;;;;;5095500;28;20175;-88
2021/01/26 04:03:04;;;;;;;10.53;4.43;;;4.10;99.90;;;;;;5095326;28;20635;-89
2021/01/26 04:05:39;;;;;;;11.93;3.80;;;4.10;99.90;;;;;;5078307;28;20259;-88
2021/01/26 04:08:30;;;;;;;8.67;3.30;;;4.00;99.90;;;;;;5078772;28;20178;-88
2021/01/26 04:11:19;;;;;;;10.10;3.57;;;4.00;99.90;;;;;;5080050;28;20199;-89
2021/01/26 04:13:56;;;;;;;10.17;3.83;;;4.00;99.90;;;;;;5084776;28;20240;-86
2021/01/26 04:16:28;;;;;;;9.93;3.87;;;4.00;99.90;;;;;;5103302;28;20203;-89
2021/01/26 04:18:56;;;;;;;8.57;3.67;;;4.00;99.90;;;;;;5097750;28;20163;-89
2021/01/26 04:21:22;;;;;;;10.13;3.57;;;4.00;99.90;;;;;;5083672;28;20616;-90
2021/01/26 04:23:54;;;;;;;6.00;3.20;;;3.90;99.90;;;;;;5092339;28;20197;-88
2021/01/26 04:26:21;;;;;;;8.43;3.57;;;3.90;99.90;;;;;;5080072;28;20265;-88
2021/01/26 04:28:49;;;;;;;8.87;3.30;;;3.90;99.90;;;;;;5094863;28;20223;-85
2021/01/26 04:31:17;;;;;;;8.73;3.67;;;3.90;99.90;;;;;;5102485;28;20217;-87
2021/01/26 04:33:43;;;;;;;8.83;3.80;;;3.90;99.90;;;;;;5085813;28;20172;-89
2021/01/26 04:36:11;;;;;;;9.13;3.80;;;3.90;99.90;;;;;;5080756;28;20710;-87
2021/01/26 04:38:36;;;;;;;7.53;3.00;;;3.90;99.90;;;;;;5078911;28;20175;-88
2021/01/26 04:41:31;;;;;;;11.27;4.27;;;4.00;99.90;;;;;;5078024;28;20545;-89
2021/01/26 04:44:34;;;;;;;9.73;4.03;;;4.00;99.90;;;;;;5035949;28;20266;-89
2021/01/26 04:47:11;;;;;;;7.00;3.47;;;3.90;99.90;;;;;;5077517;28;20183;-88
2021/01/26 04:49:42;;;;;;;9.40;3.97;;;3.90;99.90;;;;;;5099328;28;20189;-88
2021/01/26 04:52:16;;;;;;;6.53;3.13;;;3.90;99.90;;;;;;5080841;28;20190;-88
2021/01/26 04:55:09;;;;;;;8.70;3.30;;;3.90;99.90;;;;;;5096900;28;20182;-88
2021/01/26 04:57:51;;;;;;;9.20;3.37;;;4.00;99.90;;;;;;5098585;28;20195;-88
2021/01/26 05:00:55;;;;;;;10.33;3.30;;;4.00;99.90;;;;;;5077616;28;20180;-89
2021/01/26 05:03:41;;;;;;;5.00;2.67;;;4.00;99.90;;;;;;5077287;28;20635;-88
2021/01/26 05:06:13;;;;;;;13.00;3.50;;;4.00;99.90;;;;;;5077672;28;20167;-87
2021/01/26 05:08:43;;;;;;;7.17;3.10;;;4.00;99.90;;;;;;5077478;28;20715;-88
2021/01/26 05:11:16;;;;;;;8.90;2.90;;;3.90;99.90;;;;;;5076948;28;20196;-89
2021/01/26 05:13:46;;;;;;;7.83;3.10;;;4.00;99.90;;;;;;5077204;28;20539;-88
2021/01/26 05:16:21;;;;;;;12.63;3.83;;;4.00;99.90;;;;;;5094294;28;20207;-90
2021/01/26 05:19:11;;;;;;;5.67;2.73;;;4.00;99.90;;;;;;5077315;28;20201;-87
2021/01/26 05:21:42;;;;;;;6.97;2.80;;;4.00;99.90;;;;;;5077307;28;20175;-87
2021/01/26 05:24:31;;;;;;;7.67;3.07;;;4.00;99.90;;;;;;5093980;28;20193;-89
2021/01/26 05:27:01;;;;;;;6.20;2.80;;;3.90;99.90;;;;;;5077597;28;20171;-88
2021/01/26 05:29:26;;;;;;;7.30;2.90;;;3.90;99.90;;;;;;5077172;28;20624;-90
2021/01/26 05:31:58;;;;;;;8.43;2.83;;;3.90;99.90;;;;;;5076742;28;20168;-88
2021/01/26 05:34:26;;;;;;;13.23;3.43;;;3.80;99.90;;;;;;5077080;28;20178;-88
2021/01/26 05:36:52;;;;;;;9.30;3.13;;;3.90;99.90;;;;;;5076668;28;20218;-88
2021/01/26 05:39:29;;;;;;;8.37;3.73;;;3.90;99.90;;;;;;5095107;28;20151;-88
2021/01/26 05:41:56;;;;;;;6.93;3.03;;;3.90;99.90;;;;;;5076799;28;20541;-89
2021/01/26 05:44:22;;;;;;;11.07;3.23;;;3.80;99.90;;;;;;5076951;28;20168;-88
2021/01/26 05:46:48;;;;;;;10.00;3.67;;;3.80;99.90;;;;;;5076894;28;20630;-87
2021/01/26 05:49:32;;;;;;;8.30;3.50;;;3.80;99.90;;;;;;5076763;28;20172;-89
2021/01/26 05:52:00;;;;;;;5.20;2.80;;;3.80;99.90;;;;;;5077319;28;20634;-89
2021/01/26 05:54:28;;;;;;;9.23;3.23;;;3.80;99.90;;;;;;5077381;28;20658;-89
2021/01/26 05:56:56;;;;;;;6.53;3.67;;;3.80;99.90;;;;;;5077624;28;20207;-90
2021/01/26 05:59:37;;;;;;;8.20;3.50;;;3.70;99.90;;;;;;5094796;28;20151;-88
2021/01/26 06:02:20;;;;;;;11.40;3.83;;;3.50;99.90;;;;;;5076768;28;20198;-88
2021/01/26 06:04:46;;;;;;;9.17;3.57;;;3.40;99.90;;;;;;5076354;28;20183;-89
2021/01/26 06:07:20;;;;;;;8.17;3.73;;;3.20;99.90;;;;;;5076713;28;20229;-88
2021/01/26 06:09:47;;;;;;;7.93;3.67;;;3.10;99.90;;;;;;5076788;28;20281;-89
2021/01/26 06:12:23;;;;;;;7.33;3.23;;;3.20;99.90;;;;;;5076179;28;20179;-86
2021/01/26 06:14:55;;;;;;;10.23;3.87;;;3.20;99.90;;;;;;5075874;28;20271;-90
2021/01/26 06:17:29;;;;;;;9.53;3.60;;;3.10;99.90;;;;;;5093604;28;20183;-89
2021/01/26 06:20:24;;;;;;;8.63;4.17;;;3.20;99.90;;;;;;5095051;28;20359;-87
2021/01/26 06:22:52;;;;;;;10.63;3.00;;;3.20;99.90;;;;;;5074459;28;20739;-87
2021/01/26 06:25:31;;;;;;;8.97;4.30;;;3.20;99.90;;;;;;5076711;28;20258;-89
2021/01/26 06:28:35;;;;;;;9.20;3.60;;;3.20;99.90;;;;;;5076289;28;20171;-89
2021/01/26 06:31:00;;;;;;;5.10;3.70;;;3.20;99.90;;;;;;5076645;28;20211;-87
2021/01/26 06:33:46;;;;;;;7.07;3.63;;;3.10;99.90;;;;;;5093087;28;20179;-87
2021/01/26 06:37:03;;;;;;;;;;;;;;;;;;;;;
2021/01/26 06:39:51;;;;;;;8.93;3.70;;;3.10;99.90;;;;;;4991999;28;20174;-88
2021/01/26 06:42:29;;;;;;;9.13;4.30;;;3.00;99.90;;;;;;5093611;28;20171;-87
2021/01/26 06:45:04;;;;;;;10.83;4.00;;;3.10;99.90;;;;;;5092660;28;20589;-88
2021/01/26 06:48:07;;;;;;;9.70;3.80;;;3.20;99.90;;;;;;5076106;28;20548;-89
2021/01/26 06:50:44;;;;;;;10.47;4.40;;;3.20;99.90;;;;;;5075781;28;20654;-87
2021/01/26 06:53:13;;;;;;;8.20;3.80;;;3.20;99.90;;;;;;5093505;28;20175;-88
2021/01/26 06:55:57;;;;;;;7.13;3.53;;;3.20;99.90;;;;;;5092406;28;20285;-89
2021/01/26 06:58:32;;;;;;;8.90;3.93;;;3.20;99.90;;;;;;5075339;28;20205;-86
2021/01/26 07:01:36;;;;;;;8.67;3.57;;;3.20;99.90;;;;;;5075032;28;20639;-86
2021/01/26 07:04:24;;;;;;;9.53;3.90;;;3.20;99.90;;;;;;5078339;28;20266;-87
2021/01/26 07:06:54;;;;;;;8.27;3.67;;;3.20;99.90;;;;;;5074569;28;20254;-87
2021/01/26 07:09:41;;;;;;;11.07;4.40;;;3.10;99.90;;;;;;5091875;28;20190;-85
2021/01/26 07:12:19;;;;;;;9.57;4.03;;;3.20;99.90;;;;;;5074422;28;20179;-87
2021/01/26 07:15:23;;;;;;;10.20;4.80;;;3.20;99.90;;;;;;5092332;28;20168;-87
2021/01/26 07:18:07;;;;;;;25.33;6.10;;;3.20;99.90;;;;;;5074545;28;20254;-85
2021/01/26 07:20:48;;;;;;;15.30;4.80;;;3.20;99.90;;;;;;5073045;28;20182;-86
2021/01/26 07:23:37;;;;;;;12.23;3.80;;;3.10;99.90;;;;;;5092325;28;20867;-85
2021/01/26 07:26:24;;;;;;;9.57;4.47;;;3.10;99.90;;;;;;5077839;28;20168;-85
2021/01/26 07:29:18;;;;;;;9.53;4.27;;;3.10;99.90;;;;;;5077279;28;20258;-85
2021/01/26 07:31:48;;;;;;;8.83;4.27;;;3.20;99.90;;;;;;5096219;28;20217;-87
2021/01/26 07:34:52;;;;;;;8.57;4.50;;;3.20;99.90;;;;;;5078292;28;20183;-87
2021/01/26 07:37:53;;;;;;;8.03;4.70;;;3.20;99.90;;;;;;5078555;28;20183;-87
2021/01/26 07:40:25;;;;;;;7.30;4.03;;;3.20;99.90;;;;;;5094964;28;20175;-88
2021/01/26 07:42:54;;;;;;;9.73;4.07;;;3.10;99.90;;;;;;5077891;28;20168;-86
2021/01/26 07:46:12;;;;;;;9.17;4.63;;;3.20;99.90;;;;;;5094942;28;20279;-87
2021/01/26 07:48:55;;;;;;;8.50;3.80;;;3.20;99.90;;;;;;5092194;28;20191;-87
2021/01/26 07:51:33;;;;;;;8.83;4.03;;;3.30;99.90;;;;;;5096543;28;20172;-86
2021/01/26 07:54:05;;;;;;;9.67;4.17;;;3.30;99.90;;;;;;5078789;28;20314;-88
2021/01/26 07:56:40;;;;;;;9.00;3.70;;;3.30;99.90;;;;;;5078092;28;20247;-86
2021/01/26 07:59:14;;;;;;;7.53;4.13;;;3.30;99.90;;;;;;5088294;28;20163;-86
2021/01/26 08:02:16;;;;;;;9.33;4.23;;;3.30;99.90;;;;;;5095654;28;20191;-87
2021/01/26 08:04:42;;;;;;;9.53;4.40;;;3.20;99.90;;;;;;5027505;28;20175;-85
2021/01/26 08:07:19;;;;;;;9.00;3.83;;;3.30;99.90;;;;;;5079434;28;20175;-87
2021/01/26 08:09:47;;;;;;;9.77;4.60;;;3.30;99.90;;;;;;5078230;28;20198;-87
2021/01/26 08:12:41;;;;;;;8.37;4.40;;;3.20;99.90;;;;;;5095787;28;20814;-87
2021/01/26 08:15:43;;;;;;;7.70;4.20;;;3.30;99.90;;;;;;5074569;28;20179;-87
2021/01/26 08:18:38;;;;;;;10.40;4.70;;;3.30;99.90;;;;;;4994669;28;20178;-86
2021/01/26 08:21:32;;;;;;;8.13;4.83;;;3.40;99.90;;;;;;5052824;28;20262;-86
2021/01/26 08:24:16;;;;;;;8.97;4.50;;;3.30;99.90;;;;;;5094135;28;20252;-86
2021/01/26 08:26:42;;;;;;;10.33;5.40;;;3.40;99.90;;;;;;5076977;28;20175;-85
2021/01/26 08:29:08;;;;;;;7.67;4.73;;;3.20;99.90;;;;;;5094263;28;20683;-87
2021/01/26 08:31:40;;;;;;;10.43;4.87;;;3.20;99.90;;;;;;5077028;28;20210;-87
2021/01/26 08:34:21;;;;;;;10.53;4.17;;;3.20;99.90;;;;;;5087957;28;20182;-85
2021/01/26 08:37:09;;;;;;;8.10;3.83;;;3.30;99.90;;;;;;5102402;28;20620;-85
2021/01/26 08:39:44;;;;;;;6.13;4.27;;;3.30;99.90;;;;;;5103083;28;20175;-86
2021/01/26 08:42:11;;;;;;;15.77;5.63;;;3.40;99.90;;;;;;5102270;27;20177;-84
2021/01/26 08:44:37;;;;;;;13.13;5.30;;;3.40;99.90;;;;;;5116133;27;20167;-84
2021/01/26 08:47:43;;;;;;;12.43;4.97;;;3.40;99.90;;;;;;5096261;28;20178;-84
2021/01/26 08:50:17;;;;;;;14.73;5.27;;;3.50;99.90;;;;;;5084642;28;20183;-86
2021/01/26 08:52:43;;;;;;;12.43;5.40;;;3.50;99.90;;;;;;5096598;28;20244;-87
2021/01/26 08:55:09;;;;;;;12.27;5.00;;;3.50;99.90;;;;;;5096585;28;20631;-84
2021/01/26 08:57:35;;;;;;;10.53;4.83;;;3.40;99.90;;;;;;5096790;28;20183;-86
2021/01/26 09:00:24;;;;;;;8.83;4.60;;;3.40;99.90;;;;;;5115213;28;20171;-86
2021/01/26 09:02:52;;;;;;;11.23;4.70;;;3.40;99.90;;;;;;5114950;28;20167;-87
2021/01/26 09:05:35;;;;;;;8.57;4.50;;;3.40;99.90;;;;;;5096398;28;20170;-85
2021/01/26 09:08:05;;;;;;;12.73;5.07;;;3.40;99.90;;;;;;5095875;28;20212;-86
2021/01/26 09:10:53;;;;;;;11.33;4.77;;;3.60;99.90;;;;;;5096049;28;20191;-85
2021/01/26 09:13:31;;;;;;;9.40;4.30;;;3.60;99.90;;;;;;5096201;28;20225;-86
2021/01/26 09:16:03;;;;;;;9.53;4.53;;;3.60;99.90;;;;;;5096309;28;20228;-85
2021/01/26 09:18:30;;;;;;;7.13;3.83;;;3.80;99.90;;;;;;5096136;28;20182;-86
2021/01/26 09:21:07;;;;;;;10.07;3.93;;;3.80;99.90;;;;;;5096033;28;20221;-85
2021/01/26 09:23:35;;;;;;;9.47;4.30;;;3.90;99.90;;;;;;5095991;28;20217;-86
2021/01/26 09:26:13;;;;;;;5.63;3.80;;;4.00;99.90;;;;;;5095957;28;20174;-87
2021/01/26 09:28:41;;;;;;;10.27;3.50;;;4.00;99.90;;;;;;5096169;28;20254;-86
2021/01/26 09:31:10;;;;;;;10.13;3.87;;;4.00;99.90;;;;;;5096126;28;20179;-86
2021/01/26 09:33:36;;;;;;;6.47;4.00;;;3.90;99.90;;;;;;5096232;28;20592;-87
2021/01/26 09:36:01;;;;;;;7.57;3.97;;;4.00;99.90;;;;;;5095932;28;20290;-89
2021/01/26 09:38:32;;;;;;;8.70;3.80;;;4.10;99.90;;;;;;5114350;28;20635;-86
2021/01/26 09:41:25;;;;;;;7.67;3.40;;;4.20;99.90;;;;;;5095896;28;20178;-86
2021/01/26 09:44:02;;;;;;;6.83;3.40;;;4.20;99.90;;;;;;5091996;28;20175;-86
2021/01/26 09:46:31;;;;;;;8.23;4.00;;;4.30;99.90;;;;;;5076040;28;20731;-84
2021/01/26 09:49:20;;;;;;;7.87;4.53;;;4.30;99.90;;;;;;5095308;28;20167;-85
2021/01/26 09:52:22;;;;;;;12.60;4.03;;;4.40;99.90;;;;;;5095304;28;20171;-86
2021/01/26 09:54:59;;;;;;;8.33;4.23;;;4.70;99.90;;;;;;4995042;28;20582;-84
2021/01/26 09:57:25;;;;;;;10.77;3.80;;;4.50;99.90;;;;;;5100854;28;20198;-84
2021/01/26 09:59:51;;;;;;;7.37;3.93;;;4.60;99.90;;;;;;5095496;28;20178;-88
2021/01/26 10:02:17;;;;;;;7.30;3.70;;;4.60;99.90;;;;;;5095455;28;20179;-86
2021/01/26 10:04:44;;;;;;;10.53;3.90;;;4.60;99.90;;;;;;5095762;28;20159;-86
2021/01/26 10:07:18;;;;;;;9.20;4.17;;;4.60;99.90;;;;;;5095263;28;20205;-87
2021/01/26 10:09:44;;;;;;;7.87;4.10;;;4.90;99.90;;;;;;5095115;28;20564;-87
2021/01/26 10:12:37;;;;;;;8.53;4.23;;;5.00;99.90;;;;;;5095620;28;20547;-88
2021/01/26 10:15:23;;;;;;;6.63;4.00;;;5.00;99.90;;;;;;5095080;28;20186;-88
2021/01/26 10:17:53;;;;;;;6.87;3.73;;;5.10;99.90;;;;;;5095315;28;20273;-87
2021/01/26 10:20:25;;;;;;;13.83;3.80;;;5.00;99.90;;;;;;5095238;28;20227;-86
2021/01/26 10:23:09;;;;;;;7.47;4.03;;;4.90;99.90;;;;;;5095247;28;20245;-87
2021/01/26 10:25:37;;;;;;;9.73;4.03;;;5.00;99.90;;;;;;5096437;28;20209;-85
2021/01/26 10:28:13;;;;;;;7.40;3.60;;;5.10;99.90;;;;;;5096001;28;20189;-85
2021/01/26 10:30:45;;;;;;;9.17;4.20;;;5.00;99.90;;;;;;5095161;28;20163;-87
2021/01/26 10:33:28;;;;;;;8.00;3.67;;;5.10;99.90;;;;;;5113557;28;20567;-86
2021/01/26 10:35:54;;;;;;;9.20;3.63;;;4.90;99.90;;;;;;5095178;28;20241;-87
2021/01/26 10:38:31;;;;;;;12.07;4.67;;;5.00;99.90;;;;;;5094832;28;20171;-86
2021/01/26 10:41:21;;;;;;;10.10;4.10;;;5.30;99.90;;;;;;5096782;28;20210;-86
2021/01/26 10:43:47;;;;;;;10.30;3.67;;;5.30;99.90;;;;;;5096037;28;20176;-85
2021/01/26 10:46:26;;;;;;;6.67;4.00;;;5.20;99.90;;;;;;5076989;28;20254;-86
2021/01/26 10:48:52;;;;;;;6.50;4.37;;;5.20;99.90;;;;;;5076648;28;20678;-87
2021/01/26 10:51:24;;;;;;;8.80;4.13;;;5.20;99.90;;;;;;5077204;28;20174;-87
2021/01/26 10:53:50;;;;;;;7.77;4.20;;;5.60;99.90;;;;;;5075949;28;20202;-87
2021/01/26 10:56:15;;;;;;;7.20;4.17;;;5.70;99.90;;;;;;5082464;28;20211;-86
2021/01/26 10:58:44;;;;;;;8.93;4.13;;;5.60;99.90;;;;;;5099352;28;20181;-85
2021/01/26 11:01:12;;;;;;;8.80;4.40;;;5.80;99.90;;;;;;5088098;28;20516;-87
2021/01/26 11:03:38;;;;;;;10.33;4.80;;;5.70;99.90;;;;;;5082590;28;20164;-87
2021/01/26 11:06:04;;;;;;;11.03;4.30;;;5.80;99.90;;;;;;5079748;28;20703;-86
2021/01/26 11:08:31;;;;;;;8.50;4.53;;;6.00;99.90;;;;;;5081265;28;20156;-86
2021/01/26 11:10:57;;;;;;;6.83;4.20;;;6.10;99.90;;;;;;5080665;28;20206;-86
2021/01/26 11:13:23;;;;;;;8.63;4.30;;;6.10;99.90;;;;;;5086696;28;20172;-86
2021/01/26 11:15:52;;;;;;;8.47;4.20;;;6.10;99.90;;;;;;5097512;28;20290;-87
2021/01/26 11:18:29;;;;;;;11.47;4.93;;;6.20;99.90;;;;;;5090199;28;20171;-86
2021/01/26 11:20:55;;;;;;;10.83;4.23;;;6.20;99.90;;;;;;5086796;28;20186;-87
2021/01/26 11:23:21;;;;;;;10.13;4.40;;;6.10;99.90;;;;;;5079496;28;20191;-87
2021/01/26 11:25:46;;;;;;;9.90;4.87;;;6.20;99.90;;;;;;5078146;28;20168;-86
2021/01/26 11:28:12;;;;;;;7.90;4.57;;;6.10;99.90;;;;;;5077983;28;20228;-88
2021/01/26 11:30:38;;;;;;;9.63;4.77;;;6.20;99.90;;;;;;5077993;28;20267;-86
2021/01/26 11:33:08;;;;;;;9.87;4.50;;;6.30;99.90;;;;;;5077654;28;20171;-86
2021/01/26 11:35:34;;;;;;;12.37;5.23;;;6.40;99.90;;;;;;5077408;28;20196;-88
2021/01/26 11:38:01;;;;;;;8.70;4.50;;;6.40;99.90;;;;;;5077950;28;20175;-86
2021/01/26 11:40:27;;;;;;;8.07;5.10;;;6.40;99.90;;;;;;5077736;28;20686;-87
2021/01/26 11:42:53;;;;;;;10.40;5.10;;;6.50;99.90;;;;;;5105989;27;20628;-87
2021/01/26 11:45:31;;;;;;;12.40;5.67;;;6.50;99.90;;;;;;5118317;27;20317;-85
2021/01/26 11:47:58;;;;;;;9.90;5.10;;;6.70;99.90;;;;;;5105365;28;20181;-87
2021/01/26 11:50:24;;;;;;;11.63;6.47;;;6.80;99.90;;;;;;5097797;28;20178;-86
2021/01/26 11:52:50;;;;;;;10.33;5.10;;;6.70;99.90;;;;;;5117068;28;20191;-86
2021/01/26 11:55:19;;;;;;;8.07;4.77;;;6.60;99.90;;;;;;5098568;28;20170;-87
2021/01/26 11:57:46;;;;;;;8.30;4.60;;;6.50;99.90;;;;;;5105348;28;20654;-88
2021/01/26 12:00:14;;;;;;;8.20;5.20;;;6.50;99.90;;;;;;5098061;28;20588;-86
2021/01/26 12:02:39;;;;;;;8.07;5.33;;;6.30;99.90;;;;;;5096679;28;20192;-87
2021/01/26 12:05:06;;;;;;;8.77;5.13;;;6.20;99.90;;;;;;5097627;28;20536;-86
2021/01/26 12:07:32;;;;;;;12.60;5.37;;;6.10;99.90;;;;;;5097564;28;20166;-87
2021/01/26 12:09:57;;;;;;;8.83;5.20;;;6.10;99.90;;;;;;5097354;28;20198;-87
2021/01/26 12:12:23;;;;;;;11.80;5.20;;;6.40;99.90;;;;;;5097835;28;20205;-85
2021/01/26 12:14:49;;;;;;;9.73;5.10;;;6.50;99.90;;;;;;5116240;28;20227;-87
2021/01/26 12:17:14;;;;;;;10.53;5.37;;;6.40;99.90;;;;;;5097356;28;20210;-87
2021/01/26 12:19:41;;;;;;;6.47;4.47;;;6.40;99.90;;;;;;5097624;28;20174;-87
2021/01/26 12:22:06;;;;;;;8.70;5.30;;;6.40;99.90;;;;;;5097270;28;20185;-87
2021/01/26 12:24:33;;;;;;;7.27;4.87;;;6.40;99.90;;;;;;5097497;28;20167;-87
2021/01/26 12:26:58;;;;;;;10.33;4.90;;;6.50;99.90;;;;;;5097097;28;20288;-85
2021/01/26 12:29:24;;;;;;;11.10;5.53;;;6.70;99.90;;;;;;5103386;28;20203;-86
2021/01/26 12:31:50;;;;;;;13.10;5.33;;;6.90;99.90;;;;;;5099647;28;20220;-86
2021/01/26 12:34:16;;;;;;;9.50;4.60;;;7.00;99.90;;;;;;5098592;28;20220;-87
2021/01/26 12:36:41;;;;;;;8.57;4.77;;;7.00;99.90;;;;;;5098547;28;20214;-86
2021/01/26 12:39:08;;;;;;;8.40;4.57;;;6.90;99.90;;;;;;5115916;28;20202;-85
2021/01/26 12:41:33;;;;;;;7.27;4.23;;;6.70;99.90;;;;;;5100272;27;20687;-88
2021/01/26 12:43:59;;;;;;;6.23;4.50;;;6.40;99.90;;;;;;5137872;27;20162;-87
2021/01/26 12:46:26;;;;;;;10.27;5.40;;;6.40;99.90;;;;;;5118384;27;20174;-85
2021/01/26 12:48:52;;;;;;;10.83;5.00;;;6.40;99.90;;;;;;5094961;28;20232;-85
2021/01/26 12:51:19;;;;;;;11.47;4.20;;;6.50;99.90;;;;;;5076833;28;20190;-88
2021/01/26 12:53:44;;;;;;;10.57;4.17;;;6.50;99.90;;;;;;5076498;28;20170;-85
2021/01/26 12:56:10;;;;;;;11.80;4.50;;;6.70;99.90;;;;;;5075990;28;20305;-86
2021/01/26 12:58:35;;;;;;;7.67;3.93;;;6.60;99.90;;;;;;5094246;28;20178;-86
2021/01/26 13:01:01;;;;;;;11.27;4.20;;;6.70;99.90;;;;;;5076054;28;20569;-85
2021/01/26 13:03:27;;;;;;;6.83;4.20;;;6.80;99.90;;;;;;5076901;28;20176;-86
2021/01/26 13:05:53;;;;;;;8.17;4.23;;;6.80;99.90;;;;;;5076395;28;20254;-87
2021/01/26 13:08:18;;;;;;;7.53;4.63;;;6.80;99.90;;;;;;5076394;28;20180;-87
2021/01/26 13:10:44;;;;;;;11.90;4.00;;;6.90;99.90;;;;;;5094084;28;20241;-88
2021/01/26 13:13:10;;;;;;;9.67;3.90;;;6.90;99.90;;;;;;5075694;28;20221;-86
2021/01/26 13:15:35;;;;;;;7.83;4.03;;;7.00;99.90;;;;;;5076034;28;20675;-87
2021/01/26 13:18:01;;;;;;;7.73;4.37;;;7.10;99.90;;;;;;5075947;28;20187;-87
2021/01/26 13:20:28;;;;;;;8.60;3.70;;;7.00;99.90;;;;;;5075435;28;20175;-86
2021/01/26 13:22:54;;;;;;;5.90;3.60;;;7.00;99.90;;;;;;5075451;28;20284;-89
2021/01/26 13:25:23;;;;;;;9.57;4.27;;;6.90;99.90;;;;;;5075753;28;20214;-86
2021/01/26 13:27:49;;;;;;;9.97;4.53;;;7.00;99.90;;;;;;5076102;28;20187;-88
2021/01/26 13:30:18;;;;;;;6.93;4.33;;;6.90;99.90;;;;;;5075629;28;20640;-87